Skip Navigation Links www.nws.noaa.gov 
NOAA logo - Click to go to the NOAA homepage National Weather Service   NWS logo - Click to go to the NWS homepage
NCEP Central Operations
Search 
   

Local forecast by
"City, St"

Search NCO
NCEP Home > NCEP Central Operations > Data Management and Quality Assessment Branch > Quality Assessment Project > Raob Data Manual Quality Control Reports > Mexican Raob Data Manual Quality Control Reports

Latest Mexican Raob Data Manual Quality Control Report Printer image icon. Printer Friendly Version

Latest Mexican Raob Data Manual Quality Control Report

Previous Mexican Raob Data Manual Quality Control Reports

                RAOB DATA MANUAL QUALITY CONTROL (QC) REPORT
                                  MEXICAN
                       From 20180101 through 20180131

 ___DATE___ HOUR REASN DETAILS...

76256/GYM
   20180105  12Z 10158 10158; Flight equip problem.
   20180121  12Z 10158 10158.

2 records found

76405/LAP
   20180102  00Z 10158 10158.
   20180103  00Z 10158 10158.
   20180104  00Z 10158 10158.
   20180105  00Z 10158 10158...flight equipment failure
   20180106  00Z 10158 10158
   20180108  00Z 10158 10158...Flight equipment failure
   20180109  00Z 10158 10158
   20180110  00Z 10158 10158
   20180111  00Z 10158 10158.
   20180112  00Z 10158 10158.
   20180113  00Z 10158 10158.
   20180113  12Z 10159 10159
   20180114  00Z 10158 10158; Flight equip problem.
   20180115  00Z 10158 10158; Flight equip problem.
   20180117  00Z 10158 10158...Flight equipment failure
   20180118  00Z 10158 10158...Flight equipment failure
   20180119  00Z 10158 10158
   20180120  00Z 10158 10158
   20180122  00Z 10158 10158
   20180124  00Z 10158 10158; Flight equip problems.
   20180125  00Z 10158 10158; flight equip problem.
   20180125  12Z 10158 10158
   20180126  12Z 10158 10158
   20180127  00Z 10158 10158...Flight equipment failure
   20180127  12Z 10158 10158
   20180128  00Z 10158 10158...FLIGHT EQUIPMENT FAILURE.
   20180130  00Z 10158 10158
   20180131  00Z 10158 10158

28 records found

76458/MZT
   20180103  00Z 10158 10158.
   20180104  00Z 10158 10158.
   20180105  00Z 10158 10158...flight equipment failure
   20180106  00Z 10158 10158
   20180107  00Z 10158 10158...Flight equipment failure
   20180108  00Z 10158 10158...Flight equipment failure
   20180109  00Z 10158 10158
   20180110  00Z 10158 10158
   20180111  00Z 10158 10158.
   20180112  00Z 10158 10158.
   20180113  00Z 10158 10158.
   20180114  00Z 10158 10158; Flight equip problem.
   20180115  00Z 10158 10158; Flight equip problem.
   20180116  00Z 10158 10158...Flight equipment failure.
   20180117  00Z 10158 10158...Flight equipment failure
   20180117  12Z DELET Purged hgts/temps 300mb and up
   20180118  00Z 10158 10158...Flight equipment failure
   20180119  00Z 10158 10158
   20180120  00Z 10158 10158
   20180121  00Z 10158 10158
   20180122  00Z 10158 10158
   20180123  00Z 10158 10158; Flight equip problem.
   20180124  00Z 10142 10142; Flight equip problems.
   20180125  00Z 10158 10158; flight equip problem.
   20180126  00Z 10158 10158...Flight equipment failure
   20180129  00Z 10158 10158.
   20180129  12Z 10158 10158; Flight equip problem.
   20180130  00Z 10158 10158
   20180131  00Z 10158 10158

29 records found

76526/ZAC
   20180114  12Z DELET Deleted spurious wind at 782 mb...too fast

1 record found

76595/CUN
   20180112  12Z SHORT Short to 674 mb
   20180115  12Z DELET Purged temps/moisture 780-759mb...wet bulb effect

2 records found

76612/GDL
   20180122  12Z SHORT Short to 555 mb
   20180128  12Z 10140 10140
   20180130  12Z 10142 10142; Ground equip problem..

3 records found

76644/MID
   20180104  12Z DELET Purge temps and humidity 779 to 722. Super adiabatic lapse
                       rate.
   20180114  12Z DELET Purged temps 803-794 mb...wet bulb effect
   20180115  12Z DELET Purged 759mb temp/moisture...wet bulb effect
   20180122  12Z 10158 10158...Flight equipment failure

4 records found

76654/MZL
   20180103  00Z 10158 10158.
   20180103  12Z SHORT Short to 750 mb
   20180104  00Z 10158 10158.
   20180105  00Z 10158 10158...flight equipment failure
   20180106  00Z 10158 10158
   20180107  00Z 10158 10158...Flight equipment failure
   20180108  00Z 10158 10158...Flight equipment failure
   20180109  00Z 10158 10158
   20180110  00Z 10158 10158
   20180111  00Z 10158 10158.
   20180112  00Z 10158 10158.
   20180113  00Z 10158 10158.
   20180114  00Z 10158 10158; Flight equip problem.
   20180117  00Z 10158 10158...Flight equipment failure
   20180118  00Z 10158 10158...Flight equipment failure
   20180119  00Z 10158 10158
   20180120  00Z 10158 10158
   20180121  00Z 10158 10158
   20180122  00Z 10158 10158
   20180123  00Z 10158 10158; Flight equip problem.
   20180124  00Z 10158 10158; Flight equip problems.
   20180125  00Z 10158 10158; flight equip problem.
   20180127  00Z 10158 10158...Flight equipment failure
   20180127  12Z 10142 10142
   20180128  00Z 10158 10158...FLIGHT EQUIPMENT FAILURE.
   20180131  00Z 10158 10158

26 records found

76692/HYY
   20180102  00Z 10142 10142.
   20180103  00Z 10158 10158.
   20180104  00Z 10158 10158.
   20180105  00Z 10158 10158...flight equipment failure
   20180106  00Z 10158 10158
   20180107  00Z 10158 10158...Flight equipment failure
   20180108  00Z 10158 10158...Flight equipment failure
   20180110  00Z 10158 10158
   20180111  00Z 10158 10158.
   20180112  00Z 10158 10158.
   20180113  00Z 10158 10158.
   20180114  00Z 10158 10158; Flight equip problem.
   20180115  00Z 10158 10158; Flight equip problem.
   20180116  12Z DELET Purged temp/moisture 748-725mb...wet bulb effect.
   20180117  00Z 10158 10158...Flight equipment failure
   20180118  00Z 10158 10158...Flight equipment failure
   20180120  00Z 10158 10158
   20180122  00Z 10158 10158
   20180123  00Z 10158 10158; Flight equip problem.
   20180124  00Z 10158 10158; Flight equip problems.
   20180125  00Z 10158 10158; flight equip problem.
   20180126  00Z 10158 10158...Flight equipment failure
   20180127  00Z 10158 10158...Flight equipment failure
   20180128  00Z 10158 10158...FLIGHT EQUIPMENT FAILURE.
   20180129  00Z 10158 10158...FLIGHT EQUIPMENT FAILURE.
   20180130  00Z 10158 10158
   20180131  00Z 10158 10158

27 records found

76743/VHA
   20180114  00Z DELET Purge temps and humidity from 1000 to 925 and 682 to 646mb..
                       wet bulb effect.
   20180117  00Z SHORT Short to 640 mb
   20180121  00Z SHORT Short to 580 mb

3 records found

76805/ACA
   20180103  12Z SHORT Short to 423 mb

1 record found

76903/TAP
   20180116  00Z SHORT Short to 889mb.
   20180118  00Z SHORT Short to 947 mb
   20180125  12Z DELET Purged 999mb wind...too strong

3 records found



SELECTED STATIONS WITH NO SDM QC:
  76225/CUU  76394/MTY  76679/MEX




This and related reports are available on the Web at . . .
http://www.nco.ncep.noaa.gov/sib/qap/raobqc/


  

NOAA/ National Weather Service
National Centers for Environmental Prediction
NCEP Central Operations
5830 University Research Court
College Park, MD 20740
NCO Web Team
Disclaimer Privacy Policy
Page last modified: Thursday, 16-Feb-2017 19:37:45 UTC